createdAt,value
2022-10-23T00:00:32.087Z,95
2022-10-23T00:01:31.939Z,95
2022-10-23T00:02:31.999Z,95
2022-10-23T00:03:31.959Z,95
2022-10-23T00:04:31.970Z,95
2022-10-23T00:05:31.991Z,95
2022-10-23T00:06:31.974Z,94
2022-10-23T00:07:31.989Z,94
2022-10-23T00:08:31.961Z,94
2022-10-23T00:09:31.957Z,94
2022-10-23T00:10:31.945Z,94
2022-10-23T00:11:31.947Z,94
2022-10-23T00:12:31.926Z,94
2022-10-23T00:13:31.996Z,94
2022-10-23T00:14:31.931Z,94
2022-10-23T00:15:31.989Z,94
2022-10-23T00:16:31.898Z,94
2022-10-23T00:17:32.025Z,94
2022-10-23T00:18:31.949Z,94
2022-10-23T00:19:31.965Z,94
2022-10-23T00:20:31.923Z,94
2022-10-23T00:21:31.976Z,94
2022-10-23T00:22:31.946Z,93
2022-10-23T00:23:31.944Z,93
2022-10-23T00:24:31.962Z,93
2022-10-23T00:25:31.949Z,93
2022-10-23T00:26:31.962Z,93
2022-10-23T00:27:31.945Z,93
2022-10-23T00:28:31.917Z,93
2022-10-23T00:29:31.983Z,93
2022-10-23T00:30:31.933Z,92
2022-10-23T00:31:31.917Z,92
2022-10-23T00:33:31.937Z,92
2022-10-23T00:34:31.947Z,92
2022-10-23T00:35:31.962Z,92
2022-10-23T00:36:31.931Z,92
2022-10-23T00:37:31.949Z,92
2022-10-23T00:38:31.963Z,92
2022-10-23T00:39:31.951Z,92
2022-10-23T00:40:31.931Z,92
2022-10-23T00:41:31.970Z,92
2022-10-23T00:42:31.978Z,92
2022-10-23T00:43:31.936Z,92
2022-10-23T00:44:31.904Z,92
2022-10-23T00:45:31.928Z,92
2022-10-23T00:46:31.938Z,92
2022-10-23T00:47:31.924Z,92
2022-10-23T00:48:31.896Z,92
2022-10-23T00:49:33.573Z,92
2022-10-23T00:50:32.017Z,92
2022-10-23T00:51:31.970Z,92
2022-10-23T00:52:31.895Z,92
2022-10-23T00:53:31.930Z,92
2022-10-23T00:54:31.917Z,92
2022-10-23T00:55:31.928Z,93
2022-10-23T00:56:31.953Z,93
2022-10-23T00:57:31.958Z,93
2022-10-23T00:58:31.952Z,93
2022-10-23T00:59:31.935Z,92
2022-10-23T01:00:32.016Z,92
2022-10-23T01:01:32.097Z,92
2022-10-23T01:02:32.001Z,93
2022-10-23T01:03:31.928Z,92
2022-10-23T01:04:31.939Z,92
2022-10-23T01:05:31.963Z,92
2022-10-23T01:06:31.952Z,92
2022-10-23T01:07:31.914Z,92
2022-10-23T01:08:31.980Z,92
2022-10-23T01:09:31.955Z,92
2022-10-23T01:10:31.967Z,92
2022-10-23T01:11:31.904Z,92
2022-10-23T01:12:31.922Z,92
2022-10-23T01:13:31.966Z,91
2022-10-23T01:14:31.955Z,91
2022-10-23T01:15:31.939Z,91
2022-10-23T01:16:31.927Z,91
2022-10-23T01:17:31.953Z,91
2022-10-23T01:18:32.040Z,92
2022-10-23T01:19:31.929Z,92
2022-10-23T01:20:31.970Z,92
2022-10-23T01:21:31.937Z,92
2022-10-23T01:22:31.966Z,92
2022-10-23T01:23:31.920Z,92
2022-10-23T01:24:31.975Z,92
2022-10-23T01:25:31.922Z,92
2022-10-23T01:26:31.987Z,92
2022-10-23T01:27:31.916Z,92
2022-10-23T01:28:31.952Z,92
2022-10-23T01:29:31.949Z,92
2022-10-23T01:30:32.001Z,92
2022-10-23T01:31:31.921Z,92
2022-10-23T01:32:31.996Z,92
2022-10-23T01:33:31.960Z,92
2022-10-23T01:34:31.942Z,93
2022-10-23T01:35:31.931Z,93
2022-10-23T01:36:31.952Z,93
2022-10-23T01:37:31.914Z,93
2022-10-23T01:38:31.941Z,93
2022-10-23T01:39:31.912Z,93
2022-10-23T01:40:32.149Z,93
2022-10-23T01:41:32.101Z,93
2022-10-23T01:42:32.111Z,93
2022-10-23T01:43:32.062Z,93
2022-10-23T01:44:32.024Z,93
2022-10-23T01:45:32.095Z,93
2022-10-23T01:46:32.057Z,93
2022-10-23T01:47:32.007Z,93
2022-10-23T01:48:32.083Z,93
2022-10-23T01:49:31.976Z,93
2022-10-23T01:50:31.927Z,93
2022-10-23T01:51:31.948Z,93
2022-10-23T01:52:31.945Z,93
2022-10-23T01:53:31.945Z,93
2022-10-23T01:54:31.930Z,93
2022-10-23T01:55:32.042Z,93
2022-10-23T01:56:31.894Z,93
2022-10-23T01:57:31.952Z,93
2022-10-23T01:58:31.943Z,93
2022-10-23T01:59:32.004Z,93
2022-10-23T02:00:31.923Z,93
2022-10-23T02:01:32.083Z,93
2022-10-23T02:02:31.972Z,93
2022-10-23T02:03:31.948Z,93
2022-10-23T02:04:31.929Z,93
2022-10-23T02:05:31.958Z,93
2022-10-23T02:06:31.950Z,93
2022-10-23T02:07:31.932Z,93
2022-10-23T02:08:31.919Z,93
2022-10-23T02:09:31.937Z,93
2022-10-23T02:10:31.935Z,92
2022-10-23T02:11:32.020Z,92
2022-10-23T02:12:31.916Z,92
2022-10-23T02:13:31.952Z,92
2022-10-23T02:14:31.945Z,92
2022-10-23T02:15:31.942Z,91
2022-10-23T02:16:31.880Z,91
2022-10-23T02:17:31.936Z,90
2022-10-23T02:18:33.628Z,90
2022-10-23T02:19:31.923Z,90
2022-10-23T02:20:31.981Z,90
2022-10-23T02:21:31.930Z,90
2022-10-23T02:22:31.936Z,90
2022-10-23T02:23:31.917Z,91
2022-10-23T02:24:31.913Z,90
2022-10-23T02:25:31.929Z,91
2022-10-23T02:26:31.935Z,91
2022-10-23T02:27:31.898Z,91
2022-10-23T02:28:31.887Z,90
2022-10-23T02:29:31.918Z,91
2022-10-23T02:30:31.946Z,90
2022-10-23T02:31:31.960Z,91
2022-10-23T02:32:31.908Z,91
2022-10-23T02:33:31.929Z,91
2022-10-23T02:34:31.961Z,91
2022-10-23T02:35:31.918Z,91
2022-10-23T02:36:31.901Z,91
2022-10-23T02:37:31.930Z,91
2022-10-23T02:38:31.918Z,91
2022-10-23T02:39:32.000Z,91
2022-10-23T02:40:31.897Z,90
2022-10-23T02:41:31.961Z,91
2022-10-23T02:42:31.913Z,91
2022-10-23T02:43:31.923Z,91
2022-10-23T02:44:31.927Z,91
2022-10-23T02:45:32.002Z,91
2022-10-23T02:46:31.903Z,91
2022-10-23T02:47:31.910Z,91
2022-10-23T02:48:31.914Z,91
2022-10-23T02:49:31.927Z,91
2022-10-23T02:50:32.126Z,91
2022-10-23T02:51:31.936Z,91
2022-10-23T02:52:31.938Z,91
2022-10-23T02:53:31.947Z,91
2022-10-23T02:54:31.927Z,91
2022-10-23T02:55:31.946Z,91
2022-10-23T02:56:34.443Z,91
2022-10-23T02:57:31.888Z,91
2022-10-23T02:58:31.915Z,91
2022-10-23T02:59:31.954Z,91
2022-10-23T03:00:31.934Z,91
2022-10-23T03:01:32.015Z,91
2022-10-23T03:03:31.923Z,91
2022-10-23T03:04:31.928Z,91
2022-10-23T03:05:31.905Z,91
2022-10-23T03:06:31.922Z,91
2022-10-23T03:07:31.915Z,91
2022-10-23T03:08:31.932Z,91
2022-10-23T03:09:31.893Z,91
2022-10-23T03:10:32.091Z,90
2022-10-23T03:11:32.024Z,90
2022-10-23T03:12:32.029Z,90
2022-10-23T03:13:31.895Z,90
2022-10-23T03:14:31.947Z,90
2022-10-23T03:15:32.074Z,90
2022-10-23T03:16:31.967Z,89
2022-10-23T03:17:31.983Z,89
2022-10-23T03:18:32.088Z,90
2022-10-23T03:19:31.923Z,90
2022-10-23T03:20:32.072Z,90
2022-10-23T03:21:32.088Z,90
2022-10-23T03:22:32.057Z,90
2022-10-23T03:23:31.981Z,90
2022-10-23T03:24:32.019Z,90
2022-10-23T03:25:32.030Z,90
2022-10-23T03:26:32.006Z,90
2022-10-23T03:27:31.963Z,90
2022-10-23T03:28:31.969Z,90
2022-10-23T03:29:32.005Z,90
2022-10-23T03:30:32.086Z,90
2022-10-23T03:31:32.100Z,90
2022-10-23T03:32:32.067Z,90
2022-10-23T03:33:32.065Z,91
2022-10-23T03:34:31.919Z,90
2022-10-23T03:35:31.920Z,91
2022-10-23T03:36:31.937Z,91
2022-10-23T03:37:31.916Z,91
2022-10-23T03:38:31.914Z,91
2022-10-23T03:39:31.922Z,91
2022-10-23T03:40:31.994Z,91
2022-10-23T03:41:31.992Z,91
2022-10-23T03:42:32.031Z,91
2022-10-23T03:43:32.055Z,91
2022-10-23T03:44:31.961Z,91
2022-10-23T03:45:31.900Z,91
2022-10-23T03:46:31.911Z,90
2022-10-23T03:47:31.933Z,91
2022-10-23T03:48:31.914Z,91
2022-10-23T03:49:31.885Z,91
2022-10-23T03:50:31.942Z,91
2022-10-23T03:51:31.903Z,91
2022-10-23T03:52:31.987Z,91
2022-10-23T03:53:31.894Z,91
2022-10-23T03:54:31.925Z,91
2022-10-23T03:55:31.986Z,91
2022-10-23T03:56:31.924Z,91
2022-10-23T03:57:31.910Z,91
2022-10-23T03:58:31.904Z,91
2022-10-23T03:59:31.964Z,91
2022-10-23T04:00:31.977Z,91
2022-10-23T04:01:31.985Z,91
2022-10-23T04:02:31.896Z,91
2022-10-23T04:03:31.925Z,91
2022-10-23T04:04:31.918Z,91
2022-10-23T04:05:32.012Z,91
2022-10-23T04:06:31.907Z,91
2022-10-23T04:07:32.002Z,91
2022-10-23T04:08:31.924Z,91
2022-10-23T04:09:31.911Z,91
2022-10-23T04:10:31.919Z,91
2022-10-23T04:11:31.926Z,91
2022-10-23T04:12:31.919Z,91
2022-10-23T04:13:31.918Z,91
2022-10-23T04:14:31.883Z,91
2022-10-23T04:15:31.932Z,91
2022-10-23T04:16:31.931Z,91
2022-10-23T04:17:31.937Z,91
2022-10-23T04:18:31.902Z,91
2022-10-23T04:19:31.914Z,91
2022-10-23T04:20:31.942Z,91
2022-10-23T04:21:31.922Z,92
2022-10-23T04:22:31.900Z,92
2022-10-23T04:23:31.922Z,92
2022-10-23T04:24:31.929Z,92
2022-10-23T04:25:31.921Z,92
2022-10-23T04:26:31.897Z,92
2022-10-23T04:27:31.900Z,92
2022-10-23T04:28:31.924Z,92
2022-10-23T04:29:32.064Z,92
2022-10-23T04:30:31.944Z,92
2022-10-23T04:31:31.914Z,93
2022-10-23T04:32:31.942Z,93
2022-10-23T04:33:31.969Z,93
2022-10-23T04:34:31.961Z,93
2022-10-23T04:35:31.931Z,93
2022-10-23T04:36:31.927Z,93
2022-10-23T04:37:31.928Z,93
2022-10-23T04:38:31.873Z,93
2022-10-23T04:39:31.938Z,93
2022-10-23T04:40:31.931Z,93
2022-10-23T04:41:31.921Z,93
2022-10-23T04:42:31.908Z,93
2022-10-23T04:43:31.941Z,93
2022-10-23T04:44:31.943Z,93
2022-10-23T04:45:31.904Z,93
2022-10-23T04:46:31.894Z,93
2022-10-23T04:47:31.927Z,93
2022-10-23T04:48:31.911Z,93
2022-10-23T04:49:31.908Z,93
2022-10-23T04:50:31.880Z,93
2022-10-23T04:51:31.932Z,93
2022-10-23T04:52:31.936Z,93
2022-10-23T04:53:31.944Z,93
2022-10-23T04:54:31.912Z,93
2022-10-23T04:55:31.893Z,93
2022-10-23T04:56:31.900Z,93
2022-10-23T04:57:31.924Z,93
2022-10-23T04:58:32.007Z,93
2022-10-23T04:59:31.886Z,94
2022-10-23T05:00:32.202Z,94
2022-10-23T05:01:32.068Z,94
2022-10-23T05:02:31.904Z,93
2022-10-23T05:03:31.902Z,94
2022-10-23T05:04:31.900Z,94
2022-10-23T05:05:31.917Z,94
2022-10-23T05:06:31.933Z,94
2022-10-23T05:07:31.915Z,94
2022-10-23T05:08:31.933Z,94
2022-10-23T05:09:31.915Z,94
2022-10-23T05:10:31.912Z,94
2022-10-23T05:11:31.876Z,94
2022-10-23T05:12:31.917Z,94
2022-10-23T05:13:31.905Z,94
2022-10-23T05:14:31.903Z,94
2022-10-23T05:15:31.979Z,94
2022-10-23T05:16:31.909Z,94
2022-10-23T05:17:31.889Z,94
2022-10-23T05:18:31.920Z,94
2022-10-23T05:19:31.910Z,94
2022-10-23T05:20:31.919Z,94
2022-10-23T05:21:31.901Z,94
2022-10-23T05:22:31.945Z,94
2022-10-23T05:23:31.888Z,94
2022-10-23T05:24:31.916Z,95
2022-10-23T05:25:31.932Z,95
2022-10-23T05:26:32.073Z,95
2022-10-23T05:27:31.876Z,95
2022-10-23T05:28:31.937Z,95
2022-10-23T05:29:31.907Z,95
2022-10-23T05:30:31.950Z,95
2022-10-23T05:31:31.961Z,95
2022-10-23T05:32:31.933Z,95
2022-10-23T05:33:31.895Z,95
2022-10-23T05:34:31.905Z,95
2022-10-23T05:35:31.894Z,95
2022-10-23T05:36:31.897Z,95
2022-10-23T05:37:31.901Z,95
2022-10-23T05:38:31.920Z,95
2022-10-23T05:39:31.880Z,95
2022-10-23T05:40:32.043Z,95
2022-10-23T05:41:31.881Z,95
2022-10-23T05:42:31.913Z,95
2022-10-23T05:43:31.888Z,95
2022-10-23T05:44:31.903Z,95
2022-10-23T05:45:31.906Z,95
2022-10-23T05:46:31.928Z,95
2022-10-23T05:47:31.882Z,95
2022-10-23T05:48:34.367Z,95
2022-10-23T05:49:31.928Z,95
2022-10-23T05:50:31.886Z,95
2022-10-23T05:51:31.872Z,95
2022-10-23T05:52:31.902Z,95
2022-10-23T05:53:31.904Z,95
2022-10-23T05:54:31.914Z,95
2022-10-23T05:55:31.907Z,95
2022-10-23T05:56:31.977Z,95
2022-10-23T05:57:31.919Z,95
2022-10-23T05:58:31.882Z,95
2022-10-23T05:59:31.908Z,95
2022-10-23T06:00:32.082Z,95
2022-10-23T06:01:32.056Z,95
2022-10-23T06:02:31.958Z,95
2022-10-23T06:03:31.961Z,95
2022-10-23T06:04:31.930Z,95
2022-10-23T06:05:31.967Z,95
2022-10-23T06:06:31.882Z,95
2022-10-23T06:07:33.724Z,95
2022-10-23T06:08:31.967Z,95
2022-10-23T06:09:31.909Z,94
2022-10-23T06:10:31.851Z,94
2022-10-23T06:11:31.916Z,94
2022-10-23T06:12:31.899Z,94
2022-10-23T06:13:31.939Z,94
2022-10-23T06:14:31.884Z,94
2022-10-23T06:15:31.925Z,94
2022-10-23T06:16:31.907Z,94
2022-10-23T06:17:31.906Z,94
2022-10-23T06:18:31.889Z,94
2022-10-23T06:19:31.916Z,94
2022-10-23T06:20:31.927Z,94
2022-10-23T06:21:31.913Z,94
2022-10-23T06:22:31.896Z,94
2022-10-23T06:23:31.927Z,94
2022-10-23T06:24:31.922Z,94
2022-10-23T06:25:31.944Z,94
2022-10-23T06:26:31.875Z,94
2022-10-23T06:27:31.908Z,94
2022-10-23T06:28:31.899Z,94
2022-10-23T06:29:31.878Z,94
2022-10-23T06:30:31.898Z,94
2022-10-23T06:31:32.017Z,94
2022-10-23T06:32:31.968Z,94
2022-10-23T06:33:31.914Z,94
2022-10-23T06:34:31.871Z,94
2022-10-23T06:35:31.899Z,94
2022-10-23T06:36:31.928Z,94
2022-10-23T06:37:31.883Z,94
2022-10-23T06:38:31.917Z,94
2022-10-23T06:39:32.350Z,94
2022-10-23T06:40:31.927Z,94
2022-10-23T06:41:31.917Z,94
2022-10-23T06:42:31.863Z,94
2022-10-23T06:43:32.050Z,94
2022-10-23T06:44:31.914Z,94
2022-10-23T06:45:31.985Z,94
2022-10-23T06:46:31.878Z,94
2022-10-23T06:47:31.887Z,94
2022-10-23T06:48:31.906Z,94
2022-10-23T06:49:31.891Z,94
2022-10-23T06:50:32.054Z,94
2022-10-23T06:51:31.915Z,95
2022-10-23T06:53:31.926Z,94
2022-10-23T06:54:31.905Z,95
2022-10-23T06:55:31.971Z,95
2022-10-23T06:56:31.869Z,94
2022-10-23T06:57:31.880Z,94
2022-10-23T06:58:31.898Z,95
2022-10-23T06:59:31.889Z,94
2022-10-23T07:00:32.040Z,95
2022-10-23T07:01:32.006Z,95
2022-10-23T07:02:31.915Z,95
2022-10-23T07:03:31.898Z,95
2022-10-23T07:04:31.908Z,95
2022-10-23T07:05:31.910Z,95
2022-10-23T07:06:31.881Z,95
2022-10-23T07:07:31.898Z,95
2022-10-23T07:08:31.849Z,95
2022-10-23T07:09:31.906Z,95
2022-10-23T07:10:31.930Z,95
2022-10-23T07:11:31.901Z,95
2022-10-23T07:12:31.909Z,95
2022-10-23T07:13:31.908Z,95
2022-10-23T07:14:31.901Z,95
2022-10-23T07:15:31.886Z,95
2022-10-23T07:16:31.867Z,95
2022-10-23T07:17:31.876Z,95
2022-10-23T07:18:32.010Z,95
2022-10-23T07:19:31.897Z,95
2022-10-23T07:20:31.886Z,95
2022-10-23T07:21:32.918Z,95
2022-10-23T07:22:32.018Z,95
2022-10-23T07:23:31.890Z,95
2022-10-23T07:24:31.905Z,95
2022-10-23T07:25:31.877Z,95
2022-10-23T07:26:31.919Z,95
2022-10-23T07:27:31.901Z,95
2022-10-23T07:28:31.886Z,95
2022-10-23T07:29:32.039Z,95
2022-10-23T07:30:31.912Z,95
2022-10-23T07:31:31.905Z,95
2022-10-23T07:32:31.867Z,95
2022-10-23T07:33:31.898Z,95
2022-10-23T07:34:31.934Z,95
2022-10-23T07:35:34.299Z,96
2022-10-23T07:36:31.854Z,96
2022-10-23T07:37:31.901Z,95
2022-10-23T07:38:31.912Z,95
2022-10-23T07:39:31.895Z,96
2022-10-23T07:40:31.868Z,96
2022-10-23T07:41:31.913Z,95
2022-10-23T07:42:31.919Z,95
2022-10-23T07:44:31.893Z,95
2022-10-23T07:45:31.885Z,95
2022-10-23T07:46:31.877Z,95
2022-10-23T07:47:31.883Z,95
2022-10-23T07:48:31.894Z,95
2022-10-23T07:49:31.884Z,95
2022-10-23T07:50:31.848Z,95
2022-10-23T07:51:31.918Z,95
2022-10-23T07:52:35.038Z,95
2022-10-23T07:53:31.912Z,95
2022-10-23T07:54:31.860Z,95
2022-10-23T07:55:31.885Z,95
2022-10-23T07:56:31.903Z,95
2022-10-23T07:57:31.962Z,95
2022-10-23T07:58:31.883Z,95
2022-10-23T07:59:35.857Z,95
2022-10-23T08:00:31.936Z,95
2022-10-23T08:01:32.230Z,94
2022-10-23T08:02:31.929Z,94
2022-10-23T08:03:31.878Z,94
2022-10-23T08:04:31.862Z,94
2022-10-23T08:05:31.917Z,94
2022-10-23T08:06:31.928Z,94
2022-10-23T08:07:31.894Z,94
2022-10-23T08:08:31.886Z,94
2022-10-23T08:09:31.865Z,93
2022-10-23T08:10:31.884Z,93
2022-10-23T08:11:31.902Z,93
2022-10-23T08:12:31.870Z,93
2022-10-23T08:13:31.901Z,92
2022-10-23T08:14:31.896Z,92
2022-10-23T08:15:31.924Z,92
2022-10-23T08:16:31.891Z,92
2022-10-23T08:17:31.912Z,92
2022-10-23T08:18:31.889Z,92
2022-10-23T08:19:31.897Z,92
2022-10-23T08:20:31.865Z,92
2022-10-23T08:21:31.903Z,92
2022-10-23T08:22:32.060Z,91
2022-10-23T08:23:31.959Z,91
2022-10-23T08:24:31.905Z,91
2022-10-23T08:26:31.876Z,91
2022-10-23T08:27:31.908Z,91
2022-10-23T08:28:31.857Z,91
2022-10-23T08:29:31.916Z,91
2022-10-23T08:30:31.883Z,91
2022-10-23T08:31:31.908Z,91
2022-10-23T08:32:31.869Z,91
2022-10-23T08:33:31.879Z,90
2022-10-23T08:34:31.897Z,89
2022-10-23T08:35:31.893Z,88
2022-10-23T08:36:31.870Z,87
2022-10-23T08:37:31.951Z,85
2022-10-23T08:38:31.889Z,85
2022-10-23T08:39:31.939Z,84
2022-10-23T08:40:31.883Z,83
2022-10-23T08:41:31.907Z,82
2022-10-23T08:42:31.884Z,83
2022-10-23T08:43:31.912Z,83
2022-10-23T08:44:31.848Z,81
2022-10-23T08:45:31.894Z,80
2022-10-23T08:46:31.919Z,81
2022-10-23T08:47:31.929Z,80
2022-10-23T08:48:31.863Z,80
2022-10-23T08:49:31.893Z,80
2022-10-23T08:50:31.963Z,79
2022-10-23T08:51:31.912Z,78
2022-10-23T08:52:31.874Z,79
2022-10-23T08:53:31.906Z,78
2022-10-23T08:54:31.880Z,77
2022-10-23T08:55:31.879Z,77
2022-10-23T08:56:31.878Z,78
2022-10-23T08:57:31.911Z,77
2022-10-23T08:58:32.044Z,77
2022-10-23T08:59:31.888Z,77
2022-10-23T09:00:31.870Z,78
2022-10-23T09:01:32.047Z,78
2022-10-23T09:02:31.870Z,78
2022-10-23T09:03:31.839Z,77
2022-10-23T09:04:31.888Z,76
2022-10-23T09:05:31.963Z,75
2022-10-23T09:06:31.896Z,75
2022-10-23T09:07:31.900Z,76
2022-10-23T09:08:31.880Z,75
2022-10-23T09:09:31.897Z,76
2022-10-23T09:10:31.880Z,75
2022-10-23T09:11:31.895Z,74
2022-10-23T09:12:31.867Z,74
2022-10-23T09:13:31.885Z,73
2022-10-23T09:14:31.867Z,74
2022-10-23T09:15:31.915Z,72
2022-10-23T09:16:31.891Z,72
2022-10-23T09:17:31.917Z,73
2022-10-23T09:18:31.842Z,73
2022-10-23T09:19:31.965Z,74
2022-10-23T09:20:31.890Z,73
2022-10-23T09:21:31.895Z,72
2022-10-23T09:22:31.855Z,73
2022-10-23T09:23:31.890Z,73
2022-10-23T09:24:31.921Z,73
2022-10-23T09:25:31.920Z,73
2022-10-23T09:26:31.963Z,74
2022-10-23T09:27:32.123Z,75
2022-10-23T09:28:31.870Z,75
2022-10-23T09:29:31.892Z,75
2022-10-23T09:30:31.872Z,75
2022-10-23T09:31:31.920Z,74
2022-10-23T09:32:31.860Z,74
2022-10-23T09:33:31.889Z,75
2022-10-23T09:34:31.837Z,75
2022-10-23T09:35:31.893Z,75
2022-10-23T09:36:31.981Z,75
2022-10-23T09:37:31.895Z,75
2022-10-23T09:38:31.864Z,75
2022-10-23T09:39:31.885Z,74
2022-10-23T09:40:32.006Z,74
2022-10-23T09:41:31.909Z,75
2022-10-23T09:42:31.846Z,74
2022-10-23T09:43:31.921Z,74
2022-10-23T09:44:31.886Z,74
2022-10-23T09:45:31.894Z,74
2022-10-23T09:46:31.891Z,74
2022-10-23T09:47:31.949Z,74
2022-10-23T09:48:31.874Z,74
2022-10-23T09:49:31.867Z,75
2022-10-23T09:50:31.873Z,75
2022-10-23T09:51:31.884Z,75
2022-10-23T09:52:31.890Z,76
2022-10-23T09:53:31.871Z,76
2022-10-23T09:54:31.885Z,76
2022-10-23T09:55:31.864Z,76
2022-10-23T09:56:31.898Z,75
2022-10-23T09:57:31.885Z,75
2022-10-23T09:58:31.887Z,75
2022-10-23T09:59:31.858Z,74
2022-10-23T10:00:31.897Z,75
2022-10-23T10:01:32.151Z,75
2022-10-23T10:02:31.851Z,75
2022-10-23T10:03:31.849Z,75
2022-10-23T10:04:31.904Z,75
2022-10-23T10:05:31.870Z,74
2022-10-23T10:06:31.910Z,74
2022-10-23T10:07:34.670Z,74
2022-10-23T10:08:31.878Z,74
2022-10-23T10:09:31.878Z,75
2022-10-23T10:10:32.066Z,75
2022-10-23T10:11:31.842Z,75
2022-10-23T10:12:31.895Z,75
2022-10-23T10:13:31.897Z,75
2022-10-23T10:14:31.860Z,74
2022-10-23T10:15:31.859Z,74
2022-10-23T10:16:31.959Z,74
2022-10-23T10:17:31.877Z,74
2022-10-23T10:18:31.876Z,74
2022-10-23T10:19:31.858Z,74
2022-10-23T10:20:31.936Z,74
2022-10-23T10:21:31.898Z,74
2022-10-23T10:22:31.888Z,74
2022-10-23T10:23:31.857Z,74
2022-10-23T10:24:31.859Z,75
2022-10-23T10:25:31.851Z,75
2022-10-23T10:26:31.937Z,75
2022-10-23T10:27:31.847Z,75
2022-10-23T10:28:31.899Z,73
2022-10-23T10:29:31.893Z,73
2022-10-23T10:30:31.906Z,74
2022-10-23T10:31:31.863Z,73
2022-10-23T10:32:31.896Z,74
2022-10-23T10:33:31.891Z,74
2022-10-23T10:34:31.862Z,73
2022-10-23T10:35:31.894Z,73
2022-10-23T10:36:31.892Z,73
2022-10-23T10:37:31.885Z,72
2022-10-23T10:38:31.906Z,72
2022-10-23T10:39:31.841Z,72
2022-10-23T10:40:31.890Z,71
2022-10-23T10:41:31.955Z,71
2022-10-23T10:42:31.876Z,72
2022-10-23T10:43:31.837Z,71
2022-10-23T10:44:31.885Z,71
2022-10-23T10:45:31.880Z,70
2022-10-23T10:46:31.879Z,70
2022-10-23T10:47:31.883Z,70
2022-10-23T10:48:31.880Z,70
2022-10-23T10:49:31.877Z,70
2022-10-23T10:50:31.896Z,71
2022-10-23T10:51:31.875Z,71
2022-10-23T10:52:31.891Z,71
2022-10-23T10:53:31.874Z,70
2022-10-23T10:54:31.895Z,70
2022-10-23T10:55:31.872Z,71
2022-10-23T10:56:31.879Z,71
2022-10-23T10:57:31.864Z,71
2022-10-23T10:58:31.885Z,71
2022-10-23T10:59:31.879Z,69
2022-10-23T11:00:31.879Z,70
2022-10-23T11:01:31.991Z,70
2022-10-23T11:02:31.865Z,70
2022-10-23T11:03:36.082Z,69
2022-10-23T11:04:31.928Z,69
2022-10-23T11:05:31.822Z,69
2022-10-23T11:06:31.871Z,69
2022-10-23T11:07:31.886Z,69
2022-10-23T11:08:40.203Z,69
2022-10-23T11:09:31.894Z,70
2022-10-23T11:10:31.887Z,69
2022-10-23T11:11:31.856Z,68
2022-10-23T11:12:31.869Z,67
2022-10-23T11:13:31.846Z,67
2022-10-23T11:14:31.977Z,67
2022-10-23T11:15:31.887Z,67
2022-10-23T11:16:31.876Z,68
2022-10-23T11:17:31.840Z,68
2022-10-23T11:18:31.897Z,68
2022-10-23T11:19:31.851Z,67
2022-10-23T11:20:31.863Z,66
2022-10-23T11:21:31.848Z,67
2022-10-23T11:22:31.867Z,67
2022-10-23T11:23:31.894Z,67
2022-10-23T11:24:31.872Z,67
2022-10-23T11:25:31.844Z,67
2022-10-23T11:26:31.914Z,66
2022-10-23T11:27:31.885Z,66
2022-10-23T11:28:31.880Z,66
2022-10-23T11:29:31.852Z,66
2022-10-23T11:30:31.867Z,66
2022-10-23T11:31:31.894Z,66
2022-10-23T11:33:31.846Z,66
2022-10-23T11:34:31.865Z,65
2022-10-23T11:35:31.968Z,66
2022-10-23T11:36:31.901Z,66
2022-10-23T11:37:31.859Z,67
2022-10-23T11:38:31.875Z,67
2022-10-23T11:39:31.925Z,67
2022-10-23T11:40:31.911Z,66
2022-10-23T11:41:31.885Z,66
2022-10-23T11:42:31.864Z,66
2022-10-23T11:43:31.887Z,66
2022-10-23T11:44:31.892Z,66
2022-10-23T11:45:31.862Z,66
2022-10-23T11:46:31.876Z,66
2022-10-23T11:47:35.137Z,63
2022-10-23T11:48:31.881Z,64
2022-10-23T11:49:31.872Z,63
2022-10-23T11:50:31.894Z,63
2022-10-23T11:51:31.896Z,63
2022-10-23T11:52:31.908Z,63
2022-10-23T11:53:31.873Z,62
2022-10-23T11:54:31.871Z,61
2022-10-23T11:55:31.889Z,62
2022-10-23T11:56:31.932Z,62
2022-10-23T11:57:31.852Z,62
2022-10-23T11:58:32.269Z,61
2022-10-23T11:59:31.869Z,62
2022-10-23T12:00:31.879Z,62
2022-10-23T12:01:31.925Z,62
2022-10-23T12:02:32.219Z,63
2022-10-23T12:03:31.854Z,63
2022-10-23T12:04:31.871Z,64
2022-10-23T12:05:31.880Z,64
2022-10-23T12:06:31.884Z,64
2022-10-23T12:07:31.879Z,64
2022-10-23T12:08:31.921Z,64
2022-10-23T12:09:31.985Z,64
2022-10-23T12:10:31.890Z,62
2022-10-23T12:11:31.874Z,62
2022-10-23T12:12:31.888Z,63
2022-10-23T12:13:31.842Z,63
2022-10-23T12:14:31.871Z,62
2022-10-23T12:15:31.871Z,63
2022-10-23T12:16:31.865Z,62
2022-10-23T12:17:31.825Z,62
2022-10-23T12:18:31.885Z,61
2022-10-23T12:19:31.858Z,61
2022-10-23T12:20:31.861Z,61
2022-10-23T12:21:31.894Z,60
2022-10-23T12:22:32.503Z,59
2022-10-23T12:23:31.877Z,59
2022-10-23T12:24:31.940Z,58
2022-10-23T12:25:31.847Z,59
2022-10-23T12:26:31.870Z,59
2022-10-23T12:27:31.853Z,62
2022-10-23T12:28:31.955Z,60
2022-10-23T12:29:31.831Z,61
2022-10-23T12:30:31.896Z,59
2022-10-23T12:31:31.868Z,58
2022-10-23T12:32:31.876Z,58
2022-10-23T12:33:31.849Z,58
2022-10-23T12:34:31.870Z,58
2022-10-23T12:35:31.830Z,59
2022-10-23T12:36:31.851Z,58
2022-10-23T12:37:31.888Z,56
2022-10-23T12:38:35.325Z,57
2022-10-23T12:39:31.872Z,57
2022-10-23T12:40:31.876Z,58
2022-10-23T12:41:31.852Z,58
2022-10-23T12:42:31.862Z,56
2022-10-23T12:43:31.833Z,57
2022-10-23T12:44:31.864Z,56
2022-10-23T12:45:31.863Z,56
2022-10-23T12:46:31.874Z,54
2022-10-23T12:47:31.924Z,54
2022-10-23T12:48:31.867Z,54
2022-10-23T12:49:31.853Z,54
2022-10-23T12:50:31.902Z,54
2022-10-23T12:51:31.905Z,55
2022-10-23T12:52:31.884Z,55
2022-10-23T12:53:31.953Z,55
2022-10-23T12:54:32.028Z,56
2022-10-23T12:55:35.064Z,56
2022-10-23T12:56:35.136Z,55
2022-10-23T12:57:31.873Z,56
2022-10-23T12:58:32.079Z,56
2022-10-23T12:59:31.859Z,56
2022-10-23T13:00:31.902Z,57
2022-10-23T13:01:32.013Z,58
2022-10-23T13:02:32.075Z,59
2022-10-23T13:03:31.867Z,58
2022-10-23T13:04:31.853Z,60
2022-10-23T13:05:31.884Z,61
2022-10-23T13:06:31.883Z,59
2022-10-23T13:07:31.839Z,58
2022-10-23T13:08:31.863Z,60
2022-10-23T13:09:31.885Z,60
2022-10-23T13:10:31.854Z,59
2022-10-23T13:11:31.846Z,57
2022-10-23T13:12:31.902Z,57
2022-10-23T13:13:31.856Z,57
2022-10-23T13:14:31.880Z,56
2022-10-23T13:15:31.937Z,57
2022-10-23T13:16:31.894Z,56
2022-10-23T13:17:31.853Z,55
2022-10-23T13:18:31.858Z,54
2022-10-23T13:19:31.838Z,54
2022-10-23T13:20:31.936Z,54
2022-10-23T13:21:31.880Z,55
2022-10-23T13:22:31.859Z,56
2022-10-23T13:23:31.857Z,57
2022-10-23T13:24:31.872Z,59
2022-10-23T13:25:31.874Z,59
2022-10-23T13:26:31.856Z,59
2022-10-23T13:27:31.995Z,59
2022-10-23T13:28:31.848Z,59
2022-10-23T13:29:31.855Z,60
2022-10-23T13:30:31.881Z,59
2022-10-23T13:31:31.842Z,59
2022-10-23T13:32:31.864Z,60
2022-10-23T13:33:31.857Z,61
2022-10-23T13:34:31.874Z,61
2022-10-23T13:35:31.836Z,60
2022-10-23T13:36:31.916Z,60
2022-10-23T13:37:31.945Z,60
2022-10-23T13:38:31.887Z,60
2022-10-23T13:39:31.830Z,60
2022-10-23T13:40:31.887Z,61
2022-10-23T13:41:31.873Z,61
2022-10-23T13:42:31.854Z,61
2022-10-23T13:43:31.856Z,61
2022-10-23T13:44:31.881Z,62
2022-10-23T13:45:32.087Z,61
2022-10-23T13:46:31.868Z,62
2022-10-23T13:47:31.828Z,61
2022-10-23T13:48:31.845Z,61
2022-10-23T13:49:31.847Z,61
2022-10-23T13:50:31.914Z,61
2022-10-23T13:51:31.880Z,61
2022-10-23T13:52:31.838Z,61
2022-10-23T13:53:31.871Z,61
2022-10-23T13:54:31.847Z,62
2022-10-23T13:55:31.845Z,62
2022-10-23T13:56:31.861Z,62
2022-10-23T13:57:31.836Z,62
2022-10-23T13:58:31.872Z,63
2022-10-23T13:59:31.891Z,63
2022-10-23T14:00:31.864Z,63
2022-10-23T14:01:32.017Z,62
2022-10-23T14:02:32.010Z,61
2022-10-23T14:03:31.859Z,61
2022-10-23T14:04:31.864Z,61
2022-10-23T14:05:31.857Z,61
2022-10-23T14:06:31.874Z,61
2022-10-23T14:07:31.866Z,62
2022-10-23T14:08:31.842Z,62
2022-10-23T14:09:31.818Z,63
2022-10-23T14:10:31.951Z,63
2022-10-23T14:11:31.868Z,63
2022-10-23T14:12:31.860Z,63
2022-10-23T14:13:31.817Z,63
2022-10-23T14:14:31.858Z,63
2022-10-23T14:15:31.889Z,64
2022-10-23T14:16:31.969Z,64
2022-10-23T14:17:31.817Z,64
2022-10-23T14:18:31.871Z,64
2022-10-23T14:19:31.922Z,65
2022-10-23T14:20:31.894Z,66
2022-10-23T14:21:31.836Z,65